createdAt,value
2018-04-28T04:00:28.634Z,9.18
2018-04-28T04:03:09.359Z,7.50
2018-04-28T04:05:44.159Z,7.82
2018-04-28T04:08:17.780Z,8.40
2018-04-28T04:11:07.233Z,9.38
2018-04-28T04:13:42.212Z,9.73
2018-04-28T04:16:22.301Z,9.65
2018-04-28T04:18:51.303Z,8.77
2018-04-28T04:21:39.130Z,9.45
2018-04-28T04:24:08.261Z,7.70
2018-04-28T04:26:51.329Z,7.10
2018-04-28T04:42:59.293Z,7.10
2018-04-28T04:45:33.156Z,7.37
2018-04-28T04:48:12.169Z,7.57
2018-04-28T04:50:50.025Z,7.50
2018-04-28T04:56:49.579Z,7.93
2018-04-28T04:59:36.668Z,9.18
2018-04-28T05:02:12.575Z,8.00
2018-04-28T05:04:52.560Z,8.00
2018-04-28T05:07:41.540Z,7.70
2018-04-28T05:10:30.625Z,7.03
2018-04-28T05:13:04.354Z,7.47
2018-04-28T05:15:41.492Z,8.18
2018-04-28T05:18:22.311Z,7.87
2018-04-28T05:21:01.007Z,7.80
2018-04-28T05:23:47.480Z,7.83
2018-04-28T05:26:22.348Z,9.50
2018-04-28T05:28:59.183Z,8.87
2018-04-28T05:31:35.398Z,9.80
2018-04-28T05:47:45.445Z,8.13
2018-04-28T05:50:20.853Z,7.10
2018-04-28T05:53:01.948Z,7.03
2018-04-28T05:55:36.473Z,7.57
2018-04-28T05:58:13.050Z,7.30
2018-04-28T06:03:54.002Z,6.90
2018-04-28T06:06:33.972Z,7.43
2018-04-28T06:09:12.010Z,7.33
2018-04-28T06:12:02.019Z,6.97
2018-04-28T06:14:35.381Z,7.23
2018-04-28T06:17:10.994Z,7.70
2018-04-28T06:19:51.065Z,7.20
2018-04-28T06:22:19.997Z,7.23
2018-04-28T06:24:49.209Z,8.03
2018-04-28T06:27:17.306Z,7.57
2018-04-28T06:29:46.167Z,7.67
2018-04-28T06:32:14.204Z,6.13
2018-04-28T06:34:42.088Z,6.10
2018-04-28T06:37:10.601Z,7.17
2018-04-28T06:39:39.506Z,7.30
2018-04-28T06:42:08.539Z,7.30
2018-04-28T06:44:37.336Z,7.43
2018-04-28T06:47:05.933Z,7.17
2018-04-28T06:49:37.833Z,6.80
2018-04-28T06:52:06.736Z,6.20
2018-04-28T06:54:36.464Z,7.50
2018-04-28T06:57:05.307Z,5.17
2018-04-28T06:59:33.469Z,5.17
2018-04-28T07:02:01.972Z,5.87
2018-04-28T07:04:30.838Z,7.50
2018-04-28T07:06:58.952Z,6.57
2018-04-28T07:09:28.534Z,5.80
2018-04-28T07:11:56.584Z,5.90
2018-04-28T07:14:24.758Z,6.90
2018-04-28T07:16:52.425Z,7.40
2018-04-28T07:19:20.760Z,6.70
2018-04-28T07:21:48.869Z,6.60
2018-04-28T07:24:17.429Z,5.83
2018-04-28T07:26:45.520Z,5.97
2018-04-28T07:29:13.409Z,6.93
2018-04-28T07:31:41.833Z,5.80
2018-04-28T07:34:10.742Z,5.87
2018-04-28T07:36:38.854Z,6.60
2018-04-28T07:39:07.403Z,5.30
2018-04-28T07:41:35.496Z,6.00
2018-04-28T07:44:03.367Z,5.00
2018-04-28T07:46:31.269Z,4.97
2018-04-28T07:48:59.311Z,5.57
2018-04-28T07:51:27.515Z,4.90
2018-04-28T07:53:56.491Z,4.20
2018-04-28T07:56:24.480Z,4.97
2018-04-28T07:58:53.789Z,4.73
2018-04-28T08:01:21.924Z,5.23
2018-04-28T08:03:49.803Z,4.80
2018-04-28T08:06:17.796Z,4.43
2018-04-28T08:08:46.646Z,3.93
2018-04-28T08:11:15.177Z,4.80
2018-04-28T08:13:44.334Z,3.30
2018-04-28T08:16:13.857Z,4.00
2018-04-28T08:18:42.687Z,3.93
2018-04-28T08:21:11.538Z,4.10
2018-04-28T08:23:40.023Z,3.97
2018-04-28T08:26:08.207Z,4.47
2018-04-28T08:28:37.005Z,3.90
2018-04-28T08:31:05.212Z,3.90
2018-04-28T08:33:34.006Z,4.90
2018-04-28T08:36:02.047Z,4.07
2018-04-28T08:38:31.725Z,4.57
2018-04-28T08:40:59.546Z,3.90
2018-04-28T08:43:27.869Z,4.20
2018-04-28T08:45:56.872Z,3.87
2018-04-28T08:48:24.811Z,4.80
2018-04-28T08:50:53.701Z,4.17
2018-04-28T08:53:21.676Z,3.80
2018-04-28T08:55:50.200Z,3.97
2018-04-28T08:58:19.023Z,4.90
2018-04-28T09:00:57.987Z,4.40
2018-04-28T09:03:26.790Z,3.80
2018-04-28T09:05:55.612Z,8.90
2018-04-28T09:08:24.621Z,4.60
2018-04-28T09:10:54.344Z,4.43
2018-04-28T09:13:23.990Z,3.77
2018-04-28T09:15:52.954Z,4.30
2018-04-28T09:18:21.809Z,4.40
2018-04-28T09:20:50.687Z,4.20
2018-04-28T09:23:19.619Z,3.30
2018-04-28T09:25:48.532Z,5.10
2018-04-28T09:28:17.398Z,4.57
2018-04-28T09:30:47.935Z,4.33
2018-04-28T09:33:16.868Z,3.50
2018-04-28T09:35:45.755Z,3.60
2018-04-28T09:38:14.803Z,4.23
2018-04-28T09:40:44.383Z,3.90
2018-04-28T09:43:13.758Z,4.27
2018-04-28T09:45:43.275Z,3.40
2018-04-28T09:48:12.717Z,3.73
2018-04-28T09:50:42.670Z,4.60
2018-04-28T09:53:12.511Z,3.73
2018-04-28T09:55:41.346Z,3.90
2018-04-28T09:58:10.189Z,4.40
2018-04-28T10:00:57.486Z,3.97
2018-04-28T10:03:31.115Z,2.90
2018-04-28T10:06:00.078Z,2.90
2018-04-28T10:08:29.529Z,2.93
2018-04-28T10:10:58.796Z,2.80
2018-04-28T10:13:27.656Z,3.00
2018-04-28T10:15:57.858Z,2.83
2018-04-28T10:18:26.422Z,3.10
2018-04-28T10:20:55.197Z,2.67
2018-04-28T10:23:24.071Z,3.20
2018-04-28T10:25:52.897Z,3.37
2018-04-28T10:28:21.588Z,3.10
2018-04-28T10:30:50.436Z,3.30
2018-04-28T10:33:20.062Z,3.20
2018-04-28T10:35:48.961Z,2.40
2018-04-28T10:38:17.782Z,2.80
2018-04-28T10:40:46.619Z,3.77
2018-04-28T10:43:15.469Z,2.77
2018-04-28T10:45:44.232Z,3.20
2018-04-28T10:48:13.367Z,3.60
2018-04-28T10:50:42.974Z,3.23
2018-04-28T10:53:12.800Z,3.23
2018-04-28T10:55:42.659Z,3.10
2018-04-28T10:58:11.469Z,3.10
2018-04-28T11:00:40.317Z,3.40
2018-04-28T11:03:09.139Z,3.50
2018-04-28T11:05:42.330Z,4.03
2018-04-28T11:08:11.796Z,4.07
2018-04-28T11:10:41.747Z,3.20
2018-04-28T11:13:11.642Z,3.27
2018-04-28T11:15:40.423Z,4.53
2018-04-28T11:18:09.987Z,3.73
2018-04-28T11:20:39.073Z,3.77
2018-04-28T11:23:08.404Z,3.77
2018-04-28T11:25:37.101Z,3.90
2018-04-28T11:28:05.869Z,3.20
2018-04-28T11:30:34.667Z,3.23
2018-04-28T11:33:03.523Z,4.27
2018-04-28T11:35:32.283Z,4.00
2018-04-28T11:38:01.201Z,4.67
2018-04-28T11:40:29.708Z,4.43
2018-04-28T11:42:58.700Z,4.87
2018-04-28T11:45:27.627Z,3.20
2018-04-28T11:47:56.380Z,3.70
2018-04-28T11:50:25.113Z,3.50
2018-04-28T11:52:54.551Z,4.30
2018-04-28T11:55:23.721Z,3.80
2018-04-28T11:57:52.588Z,3.50
2018-04-28T12:00:22.410Z,4.00
2018-04-28T12:02:52.245Z,3.50
2018-04-28T12:05:21.084Z,3.47
2018-04-28T12:07:50.191Z,3.47
2018-04-28T12:10:20.076Z,2.90
2018-04-28T12:12:48.656Z,4.00
2018-04-28T12:15:17.360Z,4.03
2018-04-28T12:17:46.270Z,3.40
2018-04-28T12:20:15.099Z,3.40
2018-04-28T12:22:43.933Z,3.50
2018-04-28T12:25:12.771Z,3.83
2018-04-28T12:27:42.611Z,4.20
2018-04-28T12:30:11.425Z,4.17
2018-04-28T12:32:40.290Z,4.00
2018-04-28T12:35:09.106Z,4.30
2018-04-28T12:37:37.933Z,4.43
2018-04-28T12:40:07.790Z,5.20
2018-04-28T12:42:36.618Z,5.07
2018-04-28T12:45:05.454Z,4.33
2018-04-28T12:47:34.272Z,4.70
2018-04-28T12:50:03.127Z,5.27
2018-04-28T12:52:31.630Z,5.00
2018-04-28T12:55:01.028Z,5.47
2018-04-28T12:57:29.876Z,4.67
2018-04-28T12:59:59.379Z,4.93
2018-04-28T13:02:28.304Z,5.23
2018-04-28T13:04:57.118Z,5.83
2018-04-28T13:07:25.972Z,4.80
2018-04-28T13:09:55.788Z,5.50
2018-04-28T13:12:25.637Z,5.20
2018-04-28T13:14:54.470Z,4.60
2018-04-28T13:17:24.396Z,5.53
2018-04-28T13:19:54.176Z,5.13
2018-04-28T13:22:22.995Z,4.70
2018-04-28T13:24:51.833Z,4.30
2018-04-28T13:27:20.964Z,5.80
2018-04-28T13:29:49.744Z,4.97
2018-04-28T13:32:18.469Z,4.50
2018-04-28T13:34:48.187Z,4.97
2018-04-28T13:37:17.180Z,5.33
2018-04-28T13:39:46.856Z,5.43
2018-04-28T13:42:15.689Z,5.73
2018-04-28T13:44:45.503Z,5.20
2018-04-28T13:47:15.353Z,5.20
2018-04-28T13:49:44.169Z,5.70
2018-04-28T13:52:13.031Z,5.07
2018-04-28T13:54:41.880Z,5.10
2018-04-28T13:57:11.700Z,5.27
2018-04-28T13:59:40.938Z,18.47
2018-04-28T14:02:10.588Z,5.30
2018-04-28T14:04:39.486Z,5.20
2018-04-28T14:07:09.108Z,5.57
2018-04-28T14:09:38.961Z,5.83
2018-04-28T14:12:07.754Z,4.27
2018-04-28T14:14:36.558Z,5.57
2018-04-28T14:17:05.392Z,5.00
2018-04-28T14:19:35.240Z,5.20
2018-04-28T14:22:04.064Z,5.60
2018-04-28T14:24:32.911Z,5.00
2018-04-28T14:27:01.825Z,5.77
2018-04-28T14:29:30.447Z,6.37
2018-04-28T14:31:59.399Z,6.30
2018-04-28T14:34:28.233Z,6.00
2018-04-28T14:36:57.085Z,5.27
2018-04-28T14:39:25.915Z,5.40
2018-04-28T14:41:55.763Z,5.63
2018-04-28T14:44:24.587Z,5.50
2018-04-28T14:46:53.421Z,6.50
2018-04-28T14:49:22.519Z,5.30
2018-04-28T14:51:52.195Z,4.67
2018-04-28T14:54:20.758Z,5.30
2018-04-28T14:56:49.749Z,4.90
2018-04-28T14:59:19.588Z,4.80
2018-04-28T15:01:48.433Z,5.60
2018-04-28T15:04:18.124Z,4.97
2018-04-28T15:06:48.132Z,4.10
2018-04-28T15:09:17.127Z,4.40
2018-04-28T15:11:46.076Z,5.10
2018-04-28T15:14:15.418Z,4.90
2018-04-28T15:16:44.829Z,4.57
2018-04-28T15:19:14.431Z,4.53
2018-04-28T15:21:44.159Z,5.30
2018-04-28T15:24:13.991Z,4.70
2018-04-28T15:26:42.834Z,4.93
2018-04-28T15:29:11.652Z,4.93
2018-04-28T15:31:41.504Z,5.87
2018-04-28T15:34:10.347Z,5.03
2018-04-28T15:36:39.086Z,4.80
2018-04-28T15:39:08.007Z,6.27
2018-04-28T15:41:36.835Z,6.37
2018-04-28T15:44:05.664Z,6.00
2018-04-28T15:46:34.515Z,5.70
2018-04-28T15:49:04.348Z,5.10
2018-04-28T15:51:33.332Z,6.20
2018-04-28T15:54:02.136Z,5.40
2018-04-28T15:56:30.672Z,5.80
2018-04-28T15:58:59.345Z,6.50
2018-04-28T16:01:27.856Z,7.60
2018-04-28T16:03:56.563Z,6.90
2018-04-28T16:06:25.363Z,7.13
2018-04-28T16:08:54.157Z,6.40
2018-04-28T16:11:22.920Z,7.30
2018-04-28T16:13:52.675Z,6.77
2018-04-28T16:16:21.495Z,7.23
2018-04-28T16:18:50.352Z,7.50
2018-04-28T16:21:19.215Z,6.40
2018-04-28T16:23:48.036Z,6.97
2018-04-28T16:26:16.955Z,5.33
2018-04-28T16:28:45.692Z,4.97
2018-04-28T16:31:14.788Z,5.57
2018-04-28T16:33:43.529Z,5.13
2018-04-28T16:36:12.098Z,4.70
2018-04-28T16:38:40.271Z,4.63
2018-04-28T16:41:09.046Z,4.30
2018-04-28T16:43:37.612Z,4.47
2018-04-28T16:46:06.880Z,4.77
2018-04-28T16:48:36.453Z,4.37
2018-04-28T16:51:05.247Z,4.33
2018-04-28T16:53:33.718Z,4.70
2018-04-28T16:56:02.282Z,5.07
2018-04-28T16:58:30.939Z,4.60
2018-04-28T17:00:59.774Z,4.00
2018-04-28T17:03:28.540Z,6.10
2018-04-28T17:05:57.326Z,5.03
2018-04-28T17:08:26.986Z,5.27
2018-04-28T17:10:55.829Z,5.17
2018-04-28T17:13:24.365Z,4.63
2018-04-28T17:15:53.471Z,4.00
2018-04-28T17:18:22.284Z,4.40
2018-04-28T17:20:52.123Z,5.20
2018-04-28T17:23:20.672Z,5.00
2018-04-28T17:25:50.063Z,4.30
2018-04-28T17:28:18.798Z,5.30
2018-04-28T17:30:47.672Z,4.00
2018-04-28T17:33:17.291Z,4.23
2018-04-28T17:35:46.176Z,4.77
2018-04-28T17:38:15.073Z,4.33
2018-04-28T17:40:43.605Z,5.00
2018-04-28T17:43:12.111Z,4.13
2018-04-28T17:45:41.351Z,4.27
2018-04-28T17:48:10.288Z,5.03
2018-04-28T17:50:40.124Z,4.57
2018-04-28T17:53:10.004Z,5.33
2018-04-28T17:55:39.476Z,6.07
2018-04-28T17:58:07.874Z,5.13
2018-04-28T18:00:36.611Z,4.20
2018-04-28T18:03:08.662Z,4.27
2018-04-28T18:05:37.440Z,4.30
2018-04-28T18:08:06.180Z,4.43
2018-04-28T18:10:35.063Z,4.23
2018-04-28T18:13:03.905Z,5.27
2018-04-28T18:15:32.641Z,5.07
2018-04-28T18:18:02.342Z,5.60
2018-04-28T18:20:32.165Z,5.10
2018-04-28T18:23:02.051Z,4.70
2018-04-28T18:25:30.889Z,5.37
2018-04-28T18:28:00.220Z,5.07
2018-04-28T18:30:28.767Z,5.17
2018-04-28T18:32:57.595Z,4.83
2018-04-28T18:35:26.175Z,4.43
2018-04-28T18:37:55.026Z,5.60
2018-04-28T18:40:23.863Z,5.00
2018-04-28T18:42:52.656Z,5.37
2018-04-28T18:45:21.814Z,4.97
2018-04-28T18:47:50.556Z,5.73
2018-04-28T18:50:19.360Z,4.80
2018-04-28T18:52:48.138Z,5.90
2018-04-28T18:55:16.939Z,4.90
2018-04-28T18:57:47.698Z,5.07
2018-04-28T19:00:16.801Z,7.43
2018-04-28T19:02:45.782Z,5.50
2018-04-28T19:05:14.269Z,4.60
2018-04-28T19:07:44.171Z,5.33
2018-04-28T19:10:13.835Z,5.23
2018-04-28T19:12:42.684Z,4.30
2018-04-28T19:15:12.497Z,5.10
2018-04-28T19:17:42.369Z,5.00
2018-04-28T19:20:11.219Z,4.87
2018-04-28T19:22:40.016Z,4.73
2018-04-28T19:25:09.982Z,4.70
2018-04-28T19:27:43.022Z,4.43
2018-04-28T19:30:14.615Z,5.50
2018-04-28T19:32:43.561Z,4.83
2018-04-28T19:35:12.393Z,5.60
2018-04-28T19:37:41.283Z,5.50
2018-04-28T19:40:10.034Z,4.27
2018-04-28T19:42:38.847Z,4.87
2018-04-28T19:45:07.820Z,5.30
2018-04-28T19:47:36.613Z,4.50
2018-04-28T19:50:05.161Z,5.00
2018-04-28T19:52:34.001Z,6.10
2018-04-28T19:55:03.632Z,5.60
2018-04-28T19:57:32.995Z,5.90
2018-04-28T20:00:01.768Z,6.47
2018-04-28T20:02:30.409Z,6.10
2018-04-28T20:04:59.131Z,6.00
2018-04-28T20:07:28.203Z,5.43
2018-04-28T20:09:57.077Z,5.00
2018-04-28T20:12:25.842Z,5.70
2018-04-28T20:14:54.779Z,6.50
2018-04-28T20:17:23.491Z,5.60
2018-04-28T20:19:52.297Z,6.90
2018-04-28T20:22:33.012Z,6.30
2018-04-28T20:25:12.958Z,6.07
2018-04-28T20:27:41.783Z,5.83
2018-04-28T20:30:10.700Z,6.63
2018-04-28T20:32:39.418Z,6.20
2018-04-28T20:35:07.937Z,6.00
2018-04-28T20:37:37.222Z,5.20
2018-04-28T20:40:06.261Z,6.60
2018-04-28T20:42:35.969Z,5.80
2018-04-28T20:45:05.605Z,8.60
2018-04-28T20:47:34.644Z,5.60
2018-04-28T20:50:03.395Z,6.20
2018-04-28T20:52:32.205Z,5.63
2018-04-28T20:55:00.947Z,6.40
2018-04-28T20:57:30.741Z,6.17
2018-04-28T21:00:00.774Z,5.60
2018-04-28T21:02:31.101Z,6.97
2018-04-28T21:05:00.555Z,6.10
2018-04-28T21:07:29.370Z,5.03
2018-04-28T21:09:58.274Z,6.23
2018-04-28T21:12:27.802Z,5.70
2018-04-28T21:14:57.720Z,6.80
2018-04-28T21:17:26.408Z,5.97
2018-04-28T21:19:55.583Z,6.00
2018-04-28T21:22:25.158Z,6.50
2018-04-28T21:24:53.998Z,5.73
2018-04-28T21:27:24.041Z,6.60
2018-04-28T21:29:52.905Z,7.40
2018-04-28T21:32:21.916Z,7.23
2018-04-28T21:34:50.636Z,6.30
2018-04-28T21:37:19.472Z,7.07
2018-04-28T21:39:48.824Z,5.90
2018-04-28T21:42:17.844Z,5.37
2018-04-28T21:44:47.785Z,7.03
2018-04-28T21:47:17.083Z,6.10
2018-04-28T21:49:46.601Z,7.87
2018-04-28T21:52:15.429Z,6.70
2018-04-28T21:54:44.256Z,6.27
2018-04-28T21:57:12.991Z,6.10
2018-04-28T21:59:41.784Z,6.90
2018-04-28T22:02:10.317Z,6.87
2018-04-28T22:04:39.786Z,7.07
2018-04-28T22:07:08.947Z,5.80
2018-04-28T22:09:37.608Z,7.33
2018-04-28T22:12:06.772Z,7.10
2018-04-28T22:14:35.392Z,6.03
2018-04-28T22:17:04.514Z,7.10
2018-04-28T22:19:34.070Z,6.20
2018-04-28T22:22:02.576Z,6.10
2018-04-28T22:24:31.701Z,8.10
2018-04-28T22:27:01.227Z,6.83
2018-04-28T22:29:29.776Z,6.80
2018-04-28T22:31:58.907Z,6.60
2018-04-28T22:34:27.573Z,6.37
2018-04-28T22:36:57.028Z,6.40
2018-04-28T22:39:26.128Z,5.47
2018-04-28T22:41:55.534Z,7.00
2018-04-28T22:44:24.233Z,7.13
2018-04-28T22:46:53.367Z,6.40
2018-04-28T22:49:22.927Z,6.90
2018-04-28T22:51:51.483Z,7.30
2018-04-28T22:54:20.628Z,7.63
2018-04-28T22:56:49.320Z,7.67
2018-04-28T22:59:18.457Z,7.73
